Forside
METAR-TAF:

METAR-TAF

Lufthavne :

Vinton Veterans Memorial Airpark

Vinton, Iowa, USA

Breddekreds: 42-13-07N, længdekreds: 092-01-33W, højde: 258 m

Aktuelle vejr

Denne rapport blev lavet for 26 minutter siden, kl. 19:35 UTC
Vind 11 kt fra syd med vindstød på up til 14 kt
Temperatur 7°C
Fugtighed 53%
Tryk 1018 hPa
Sigt: 16.1 km
skyfri

METAR: KVTI 221935Z AUTO 19011G14KT 10SM CLR 07/M02 A3005 RMK AO2 T00651016

Tid: 14:01 (20:01 UTC)


TAF: fraværende

Vejrobservationer og prognoser fra mere end 4000 lufthavne (METAR og TAF).

De gule og røde prikker repræsenterer de meteorologiske stationer.

Flyt musen over at se navnet på stationen.

Så klik over at se vejr observationer og prognoser.

At skifte det kort: Klik på de grønne knapper med et sort kors for at zoome ind; på den grønne knap med en bindestreg for at zoome ud; eller på de grønne pile for tilstødende kort.


METAR-TAF: